createdAt,value
2019-02-09T00:01:25.649Z,3.27
2019-02-09T00:05:28.929Z,3.03
2019-02-09T00:09:32.671Z,3.13
2019-02-09T00:13:36.026Z,4.57
2019-02-09T00:17:40.006Z,3.93
2019-02-09T00:21:43.782Z,3.40
2019-02-09T00:25:47.088Z,3.90
2019-02-09T00:29:50.373Z,3.67
2019-02-09T00:33:54.687Z,3.40
2019-02-09T00:37:58.470Z,3.10
2019-02-09T00:42:02.222Z,3.50
2019-02-09T00:46:06.126Z,3.23
2019-02-09T00:50:09.979Z,2.93
2019-02-09T00:54:13.702Z,3.57
2019-02-09T00:58:17.017Z,3.37
2019-02-09T01:02:20.290Z,3.60
2019-02-09T01:06:23.594Z,3.67
2019-02-09T01:10:30.086Z,3.67
2019-02-09T01:14:33.947Z,4.00
2019-02-09T01:18:37.672Z,4.03
2019-02-09T01:22:41.275Z,3.60
2019-02-09T01:26:45.006Z,4.17
2019-02-09T01:30:48.826Z,5.70
2019-02-09T01:34:52.622Z,3.83
2019-02-09T01:38:56.374Z,1.20
2019-02-09T01:42:59.726Z,1.40
2019-02-09T01:47:04.086Z,1.47
2019-02-09T01:51:07.371Z,2.00
2019-02-09T01:55:11.222Z,2.60
2019-02-09T01:59:14.574Z,2.20
2019-02-09T02:03:18.050Z,2.37
2019-02-09T02:07:21.322Z,2.10
2019-02-09T02:11:25.079Z,3.00
2019-02-09T02:15:28.435Z,2.40
2019-02-09T02:19:32.466Z,2.30
2019-02-09T02:23:36.183Z,2.80
2019-02-09T02:27:39.490Z,2.97
2019-02-09T02:31:43.211Z,4.17
2019-02-09T02:35:46.823Z,4.60
2019-02-09T02:39:50.102Z,6.00
2019-02-09T02:43:54.067Z,7.23
2019-02-09T02:47:57.899Z,6.47
2019-02-09T02:52:01.875Z,6.17
2019-02-09T02:56:05.983Z,6.07
2019-02-09T03:00:11.531Z,6.20
2019-02-09T03:04:14.815Z,5.93
2019-02-09T03:08:18.122Z,4.60
2019-02-09T03:12:21.477Z,4.40
2019-02-09T03:16:24.850Z,3.43
2019-02-09T03:20:28.314Z,3.53
2019-02-09T03:24:31.795Z,3.50
2019-02-09T03:28:35.515Z,4.47
2019-02-09T03:32:39.126Z,4.37
2019-02-09T03:36:42.434Z,3.20
2019-02-09T03:40:45.818Z,3.80
2019-02-09T03:44:49.541Z,3.97
2019-02-09T03:48:54.081Z,3.10
2019-02-09T03:52:58.259Z,3.07
2019-02-09T03:57:01.992Z,2.77
2019-02-09T04:01:05.855Z,5.73
2019-02-09T04:05:10.558Z,2.60
2019-02-09T04:09:14.270Z,2.57
2019-02-09T04:13:18.302Z,3.70
2019-02-09T04:17:22.292Z,4.03
2019-02-09T04:21:25.598Z,2.57
2019-02-09T04:25:29.322Z,2.80
2019-02-09T04:29:33.442Z,3.37
2019-02-09T04:33:36.714Z,2.80
2019-02-09T04:37:40.279Z,2.77
2019-02-09T04:41:43.562Z,2.97
2019-02-09T04:45:47.422Z,2.97
2019-02-09T04:49:51.192Z,2.60
2019-02-09T04:53:55.002Z,4.37
2019-02-09T04:57:58.795Z,3.67
2019-02-09T05:02:02.110Z,3.50
2019-02-09T05:06:05.407Z,3.20
2019-02-09T05:10:10.795Z,2.20
2019-02-09T05:14:14.510Z,2.93
2019-02-09T05:18:17.841Z,3.77
2019-02-09T05:22:21.110Z,3.30
2019-02-09T05:26:25.347Z,4.00
2019-02-09T05:30:29.602Z,2.87
2019-02-09T05:34:32.906Z,3.70
2019-02-09T05:38:36.631Z,3.90
2019-02-09T05:42:40.374Z,3.10
2019-02-09T05:46:43.894Z,3.80
2019-02-09T05:50:47.727Z,4.00
2019-02-09T05:54:51.448Z,5.03
2019-02-09T05:58:55.199Z,4.07
2019-02-09T06:02:59.375Z,4.43
2019-02-09T06:07:03.302Z,3.10
2019-02-09T06:11:07.019Z,4.07
2019-02-09T06:15:11.046Z,3.20
2019-02-09T06:19:14.331Z,5.13
2019-02-09T06:23:18.091Z,3.53
2019-02-09T06:27:21.806Z,3.90
2019-02-09T06:31:25.186Z,4.23
2019-02-09T06:35:29.366Z,4.37
2019-02-09T06:39:33.398Z,3.53
2019-02-09T06:43:36.682Z,3.40
2019-02-09T06:47:40.428Z,3.57
2019-02-09T06:51:44.378Z,3.53
2019-02-09T06:55:47.681Z,3.80
2019-02-09T06:59:51.398Z,4.00
2019-02-09T07:03:54.718Z,3.70
2019-02-09T07:07:58.510Z,4.17
2019-02-09T07:12:02.350Z,3.93
2019-02-09T07:16:05.706Z,4.50
2019-02-09T07:20:09.851Z,3.97
2019-02-09T07:24:13.578Z,4.80
2019-02-09T07:28:17.074Z,4.00
2019-02-09T07:32:20.354Z,3.23
2019-02-09T07:36:23.671Z,5.43
2019-02-09T07:40:27.746Z,5.13
2019-02-09T07:44:31.490Z,3.50
2019-02-09T07:48:35.202Z,3.67
2019-02-09T07:52:38.742Z,4.10
2019-02-09T07:56:42.462Z,4.47
2019-02-09T08:00:46.134Z,4.60
2019-02-09T08:04:49.410Z,3.93
2019-02-09T08:08:53.170Z,4.50
2019-02-09T08:12:56.557Z,3.93
2019-02-09T08:17:00.126Z,3.30
2019-02-09T08:21:03.694Z,4.57
2019-02-09T08:25:09.908Z,4.90
2019-02-09T08:29:13.626Z,7.00
2019-02-09T08:33:17.213Z,4.40
2019-02-09T08:37:20.499Z,5.63
2019-02-09T08:41:24.525Z,5.93
2019-02-09T08:45:28.216Z,4.60
2019-02-09T08:49:32.550Z,6.53
2019-02-09T08:53:36.286Z,4.87
2019-02-09T08:57:40.202Z,6.80
2019-02-09T09:01:43.558Z,7.57
2019-02-09T09:05:47.378Z,6.93
2019-02-09T09:09:51.174Z,7.40
2019-02-09T09:13:54.922Z,6.40
2019-02-09T09:17:58.209Z,6.40
2019-02-09T09:22:02.175Z,6.00
2019-02-09T09:26:05.533Z,5.50
2019-02-09T09:30:09.964Z,6.20
2019-02-09T09:34:13.241Z,6.30
2019-02-09T09:38:17.434Z,7.80
2019-02-09T09:42:20.890Z,4.63
2019-02-09T09:46:24.822Z,6.53
2019-02-09T09:50:28.593Z,5.50
2019-02-09T09:54:32.359Z,6.37
2019-02-09T09:58:36.090Z,6.43
2019-02-09T10:02:39.994Z,5.37
2019-02-09T10:06:44.125Z,5.57
2019-02-09T10:10:47.950Z,6.90
2019-02-09T10:14:51.238Z,5.57
2019-02-09T10:18:55.074Z,6.30
2019-02-09T10:22:58.425Z,6.30
2019-02-09T10:27:02.011Z,6.07
2019-02-09T10:31:05.366Z,5.80
2019-02-09T10:35:10.338Z,5.43
2019-02-09T10:39:14.050Z,7.10
2019-02-09T10:43:20.339Z,6.23
2019-02-09T10:47:24.062Z,5.43
2019-02-09T10:51:27.982Z,6.60
2019-02-09T10:55:31.338Z,4.87
2019-02-09T10:59:35.175Z,4.07
2019-02-09T11:03:38.980Z,6.13
2019-02-09T11:07:42.366Z,5.20
2019-02-09T11:11:45.650Z,5.50
2019-02-09T11:15:48.967Z,5.83
2019-02-09T11:19:52.248Z,5.07
2019-02-09T11:23:56.006Z,3.80
2019-02-09T11:27:59.366Z,6.03
2019-02-09T11:32:02.678Z,5.40
2019-02-09T11:36:06.558Z,6.70
2019-02-09T11:40:11.547Z,4.70
2019-02-09T11:44:14.830Z,5.40
2019-02-09T11:48:18.316Z,4.20
2019-02-09T11:52:22.221Z,5.23
2019-02-09T11:56:25.766Z,4.80
2019-02-09T12:00:31.990Z,4.10
2019-02-09T12:04:35.798Z,4.80
2019-02-09T12:08:39.530Z,6.60
2019-02-09T12:12:43.067Z,4.30
2019-02-09T12:16:46.346Z,3.87
2019-02-09T12:20:50.166Z,4.30
2019-02-09T12:24:53.450Z,6.70
2019-02-09T12:28:56.758Z,4.80
2019-02-09T12:33:00.115Z,4.20
2019-02-09T12:37:03.994Z,4.90
2019-02-09T12:41:07.282Z,3.70
2019-02-09T12:45:12.778Z,4.27
2019-02-09T12:49:16.054Z,4.80
2019-02-09T12:53:20.094Z,4.53
2019-02-09T12:57:24.090Z,4.73
2019-02-09T13:01:27.914Z,3.40
2019-02-09T13:05:31.202Z,3.77
2019-02-09T13:09:34.954Z,4.40
2019-02-09T13:13:38.766Z,4.13
2019-02-09T13:17:42.310Z,3.40
2019-02-09T13:21:45.598Z,5.40
2019-02-09T13:25:48.918Z,5.40
2019-02-09T13:29:52.638Z,5.30
2019-02-09T13:33:56.322Z,4.83
2019-02-09T13:38:00.218Z,3.70
2019-02-09T13:42:03.665Z,5.10
2019-02-09T13:46:06.967Z,3.30
2019-02-09T13:50:11.774Z,5.37
2019-02-09T13:54:15.058Z,4.47
2019-02-09T13:58:19.988Z,4.40
2019-02-09T14:02:23.282Z,3.47
2019-02-09T14:06:26.586Z,3.20
2019-02-09T14:10:30.330Z,4.03
2019-02-09T14:14:33.970Z,3.57
2019-02-09T14:18:37.250Z,3.70
2019-02-09T14:22:40.638Z,3.47
2019-02-09T14:26:44.366Z,4.00
2019-02-09T14:30:48.114Z,4.17
2019-02-09T14:34:51.698Z,3.60
2019-02-09T14:38:55.042Z,4.50
2019-02-09T14:42:58.945Z,4.20
2019-02-09T14:47:02.450Z,4.20
2019-02-09T14:51:05.829Z,5.30
2019-02-09T14:55:10.695Z,4.67
2019-02-09T14:59:14.028Z,5.23
2019-02-09T15:03:17.399Z,4.30
2019-02-09T15:07:21.205Z,5.00
2019-02-09T15:11:24.735Z,3.93
2019-02-09T15:15:38.754Z,4.50
2019-02-09T15:19:42.683Z,4.20
2019-02-09T15:23:46.038Z,4.07
2019-02-09T15:27:50.186Z,4.07
2019-02-09T15:31:53.898Z,4.13
2019-02-09T15:35:58.707Z,4.83
2019-02-09T15:40:02.218Z,4.70
2019-02-09T15:44:05.850Z,4.63
2019-02-09T15:48:09.570Z,4.30
2019-02-09T15:52:13.627Z,5.03
2019-02-09T15:56:16.904Z,4.77
2019-02-09T16:00:22.782Z,4.30
2019-02-09T16:04:26.502Z,5.30
2019-02-09T16:08:30.026Z,4.20
2019-02-09T16:12:33.751Z,4.67
2019-02-09T16:16:37.258Z,6.33
2019-02-09T16:20:41.294Z,4.90
2019-02-09T16:24:45.998Z,4.27
2019-02-09T16:28:49.287Z,4.87
2019-02-09T16:32:53.181Z,4.50
2019-02-09T16:36:56.582Z,4.00
2019-02-09T16:41:00.546Z,4.47
2019-02-09T16:45:05.006Z,5.90
2019-02-09T16:49:08.902Z,5.37
2019-02-09T16:53:12.622Z,3.10
2019-02-09T16:57:17.002Z,3.70
2019-02-09T17:01:20.766Z,5.10
2019-02-09T17:05:24.779Z,5.17
2019-02-09T17:09:28.498Z,4.93
2019-02-09T17:13:32.138Z,4.57
2019-02-09T17:17:35.859Z,6.10
2019-02-09T17:21:39.772Z,5.50
2019-02-09T17:25:43.047Z,5.23
2019-02-09T17:29:46.362Z,4.13
2019-02-09T17:33:49.639Z,4.93
2019-02-09T17:37:53.046Z,6.50
2019-02-09T17:41:56.655Z,6.53
2019-02-09T17:46:07.850Z,5.10
2019-02-09T17:50:11.500Z,4.13
2019-02-09T17:54:15.482Z,5.20
2019-02-09T17:58:19.364Z,4.43
2019-02-09T18:02:23.158Z,4.63
2019-02-09T18:06:26.723Z,7.80
2019-02-09T18:10:30.536Z,4.57
2019-02-09T18:14:33.824Z,4.40
2019-02-09T18:18:37.962Z,5.50
2019-02-09T18:22:41.697Z,5.63
2019-02-09T18:26:44.998Z,5.97
2019-02-09T18:30:48.722Z,6.23
2019-02-09T18:34:56.156Z,4.50
2019-02-09T18:38:57.738Z,3.53
2019-02-09T18:43:01.638Z,7.53
2019-02-09T18:47:06.274Z,5.73
2019-02-09T18:51:10.026Z,4.13
2019-02-09T18:55:16.387Z,5.17
2019-02-09T18:59:20.330Z,7.30
2019-02-09T19:03:24.358Z,5.10
2019-02-09T19:07:28.150Z,5.33
2019-02-09T19:11:31.871Z,4.77
2019-02-09T19:15:35.258Z,5.83
2019-02-09T19:19:39.386Z,5.37
2019-02-09T19:23:43.162Z,5.00
2019-02-09T19:27:46.714Z,4.77
2019-02-09T19:31:50.254Z,5.90
2019-02-09T19:36:00.574Z,6.00
2019-02-09T19:40:05.461Z,5.57
2019-02-09T19:44:09.238Z,6.00
2019-02-09T19:48:13.138Z,5.60
2019-02-09T19:52:16.867Z,5.07
2019-02-09T19:56:20.619Z,5.80
2019-02-09T20:00:26.830Z,6.20
2019-02-09T20:04:30.927Z,6.20
2019-02-09T20:08:34.638Z,7.50
2019-02-09T20:12:38.743Z,5.20
2019-02-09T20:16:42.103Z,4.50
2019-02-09T20:20:47.601Z,6.67
2019-02-09T20:24:51.737Z,6.47
2019-02-09T20:28:55.672Z,5.90
2019-02-09T20:33:00.049Z,6.17
2019-02-09T20:37:03.888Z,4.90
2019-02-09T20:41:08.733Z,6.50
2019-02-09T20:45:13.263Z,5.70
2019-02-09T20:49:17.066Z,5.70
2019-02-09T20:53:21.315Z,6.40
2019-02-09T20:57:25.403Z,9.60
2019-02-09T21:01:29.223Z,6.70
2019-02-09T21:05:36.580Z,8.50
2019-02-09T21:09:39.747Z,5.93
2019-02-09T21:13:43.695Z,6.27
2019-02-09T21:17:47.903Z,5.90
2019-02-09T21:21:51.635Z,5.60
2019-02-09T21:25:55.460Z,6.13
2019-02-09T21:29:59.178Z,6.00
2019-02-09T21:34:03.162Z,6.00
2019-02-09T21:38:07.141Z,6.03
2019-02-09T21:42:10.886Z,5.53
2019-02-09T21:46:15.134Z,6.77
2019-02-09T21:50:20.983Z,5.83
2019-02-09T21:54:24.706Z,6.47
2019-02-09T21:58:28.734Z,6.27
2019-02-09T22:02:32.463Z,5.77
2019-02-09T22:06:36.654Z,4.80
2019-02-09T22:10:40.454Z,4.73
2019-02-09T22:14:44.234Z,5.60
2019-02-09T22:18:48.196Z,5.20
2019-02-09T22:22:52.530Z,5.30
2019-02-09T22:26:56.320Z,6.50
2019-02-09T22:31:00.276Z,4.90
2019-02-09T22:35:04.974Z,5.80
2019-02-09T22:39:09.070Z,6.93
2019-02-09T22:43:12.850Z,5.43
2019-02-09T22:47:16.866Z,5.67
2019-02-09T22:51:20.580Z,6.10
2019-02-09T22:55:24.691Z,5.47
2019-02-09T22:59:28.707Z,4.77
2019-02-09T23:03:42.978Z,4.70
2019-02-09T23:07:47.446Z,6.20
2019-02-09T23:11:51.254Z,4.47
2019-02-09T23:15:54.971Z,5.13
2019-02-09T23:19:58.966Z,6.00
2019-02-09T23:24:02.762Z,4.07
2019-02-09T23:28:06.518Z,4.80
2019-02-09T23:32:10.310Z,4.60
2019-02-09T23:36:16.388Z,5.07
2019-02-09T23:40:19.851Z,5.27
2019-02-09T23:44:24.315Z,5.83
2019-02-09T23:48:28.111Z,4.10
2019-02-09T23:52:31.855Z,4.77
2019-02-09T23:56:35.578Z,4.87
